createdAt,value
2023-03-13T00:01:29.598Z,2.66
2023-03-13T00:03:57.469Z,2.66
2023-03-13T00:06:25.911Z,2.66
2023-03-13T00:08:53.733Z,2.58
2023-03-13T00:11:21.313Z,2.65
2023-03-13T00:13:50.270Z,2.65
2023-03-13T00:16:18.170Z,2.71
2023-03-13T00:18:46.857Z,2.64
2023-03-13T00:21:14.597Z,2.68
2023-03-13T00:23:42.337Z,2.70
2023-03-13T00:26:11.376Z,2.69
2023-03-13T00:28:40.199Z,2.73
2023-03-13T00:31:10.449Z,2.69
2023-03-13T00:33:39.794Z,2.68
2023-03-13T00:36:09.363Z,2.80
2023-03-13T00:38:37.627Z,2.85
2023-03-13T00:41:07.085Z,2.88
2023-03-13T00:43:35.145Z,2.86
2023-03-13T00:46:03.015Z,2.86
2023-03-13T00:48:33.175Z,2.83
2023-03-13T00:51:01.217Z,2.84
2023-03-13T00:53:28.852Z,2.83
2023-03-13T00:55:57.939Z,2.84
2023-03-13T00:58:26.778Z,2.90
2023-03-13T01:00:54.645Z,2.95
2023-03-13T01:03:25.400Z,2.98
2023-03-13T01:05:58.349Z,2.99
2023-03-13T01:08:25.940Z,3.01
2023-03-13T01:10:59.545Z,3.06
2023-03-13T01:13:27.604Z,3.07
2023-03-13T01:15:55.300Z,3.13
2023-03-13T01:18:23.464Z,3.12
2023-03-13T01:20:51.138Z,3.11
2023-03-13T01:23:20.076Z,3.09
2023-03-13T01:25:47.702Z,3.13
2023-03-13T01:28:15.987Z,3.13
2023-03-13T01:30:43.674Z,3.13
2023-03-13T01:33:11.286Z,3.10
2023-03-13T01:35:39.026Z,3.08
2023-03-13T01:38:06.845Z,3.14
2023-03-13T01:40:42.035Z,3.13
2023-03-13T01:43:27.038Z,3.17
2023-03-13T01:45:58.748Z,3.21
2023-03-13T01:48:30.430Z,3.23
2023-03-13T01:51:00.928Z,3.17
2023-03-13T01:53:30.898Z,3.12
2023-03-13T01:56:01.140Z,3.23
2023-03-13T01:58:30.351Z,3.16
2023-03-13T02:00:59.225Z,3.13
2023-03-13T02:03:27.748Z,3.13
2023-03-13T02:05:56.812Z,3.13
2023-03-13T02:08:27.040Z,3.10
2023-03-13T02:10:59.590Z,3.11
2023-03-13T02:13:29.062Z,3.12
2023-03-13T02:15:57.106Z,3.15
2023-03-13T02:18:25.987Z,3.12
2023-03-13T02:20:57.829Z,3.09
2023-03-13T02:23:29.039Z,3.08
2023-03-13T02:25:58.044Z,3.10
2023-03-13T02:28:26.952Z,3.09
2023-03-13T02:30:56.851Z,3.17
2023-03-13T02:33:27.761Z,3.15
2023-03-13T02:35:55.866Z,3.09
2023-03-13T02:38:25.712Z,3.04
2023-03-13T02:40:54.312Z,2.92
2023-03-13T02:43:27.513Z,2.96
2023-03-13T02:46:10.180Z,2.89
2023-03-13T02:48:39.210Z,2.91
2023-03-13T02:51:11.999Z,2.90
2023-03-13T02:53:39.638Z,2.82
2023-03-13T02:56:08.328Z,2.89
2023-03-13T02:58:50.878Z,2.88
2023-03-13T03:01:18.694Z,2.85
2023-03-13T03:03:46.480Z,2.90
2023-03-13T03:06:14.156Z,2.91
2023-03-13T03:08:43.867Z,2.93
2023-03-13T03:11:12.031Z,2.98
2023-03-13T03:13:39.841Z,2.98
2023-03-13T03:16:10.481Z,3.00
2023-03-13T03:18:38.633Z,3.06
2023-03-13T03:21:08.085Z,3.07
2023-03-13T03:23:35.877Z,3.12
2023-03-13T03:26:04.646Z,3.15
2023-03-13T03:28:32.251Z,3.16
2023-03-13T03:31:05.094Z,3.19
2023-03-13T03:33:34.039Z,3.20
2023-03-13T03:36:02.477Z,3.17
2023-03-13T03:38:30.154Z,3.23
2023-03-13T03:40:57.771Z,3.16
2023-03-13T03:43:25.790Z,3.23
2023-03-13T03:45:53.435Z,3.28
2023-03-13T03:48:21.098Z,3.29
2023-03-13T03:50:50.029Z,3.28
2023-03-13T03:53:17.852Z,3.31
2023-03-13T03:55:45.788Z,3.29
2023-03-13T03:58:13.477Z,3.27
2023-03-13T04:00:41.221Z,3.27
2023-03-13T04:03:08.841Z,3.33
2023-03-13T04:05:36.469Z,3.35
2023-03-13T04:08:05.782Z,3.37
2023-03-13T04:10:33.422Z,3.39
2023-03-13T04:13:00.993Z,3.41
2023-03-13T04:15:28.637Z,3.39
2023-03-13T04:17:59.511Z,3.33
2023-03-13T04:20:28.769Z,3.40
2023-03-13T04:22:56.367Z,3.40
2023-03-13T04:25:25.446Z,3.34
2023-03-13T04:27:53.078Z,3.31
2023-03-13T04:30:20.790Z,3.34
2023-03-13T04:32:48.510Z,3.33
2023-03-13T04:35:16.456Z,3.28
2023-03-13T04:37:44.098Z,3.26
2023-03-13T04:40:13.611Z,3.25
2023-03-13T04:42:43.019Z,3.27
2023-03-13T04:45:12.610Z,3.31
2023-03-13T04:47:40.262Z,3.35
2023-03-13T04:50:08.412Z,3.35
2023-03-13T04:52:36.210Z,3.36
2023-03-13T04:55:03.892Z,3.31
2023-03-13T04:57:31.499Z,3.29
2023-03-13T05:00:00.473Z,3.26
2023-03-13T05:02:28.151Z,3.26
2023-03-13T05:04:55.833Z,3.26
2023-03-13T05:07:23.518Z,3.16
2023-03-13T05:09:51.170Z,3.26
2023-03-13T05:12:18.836Z,3.28
2023-03-13T05:14:46.460Z,3.34
2023-03-13T05:17:15.509Z,3.37
2023-03-13T05:19:43.252Z,3.43
2023-03-13T05:22:10.847Z,3.46
2023-03-13T05:24:40.276Z,3.49
2023-03-13T05:27:09.403Z,3.55
2023-03-13T05:29:37.026Z,3.51
2023-03-13T05:32:04.673Z,3.46
2023-03-13T05:34:33.643Z,3.61
2023-03-13T05:37:01.382Z,3.61
2023-03-13T05:39:29.029Z,3.66
2023-03-13T05:41:56.603Z,3.69
2023-03-13T05:44:24.304Z,3.73
2023-03-13T05:46:52.022Z,3.77
2023-03-13T05:49:19.734Z,3.82
2023-03-13T05:51:48.702Z,3.81
2023-03-13T05:54:16.363Z,3.82
2023-03-13T05:56:44.917Z,3.83
2023-03-13T05:59:12.543Z,3.87
2023-03-13T06:01:40.149Z,3.91
2023-03-13T06:04:07.958Z,3.99
2023-03-13T06:06:35.688Z,4.04
2023-03-13T06:09:04.821Z,4.04
2023-03-13T06:11:32.470Z,4.09
2023-03-13T06:14:00.146Z,4.12
2023-03-13T06:16:27.845Z,4.12
2023-03-13T06:18:55.521Z,4.18
2023-03-13T06:21:23.887Z,4.22
2023-03-13T06:23:51.456Z,4.24
2023-03-13T06:26:20.423Z,4.24
2023-03-13T06:28:48.046Z,4.29
2023-03-13T06:31:15.730Z,4.24
2023-03-13T06:33:43.360Z,4.35
2023-03-13T06:36:12.100Z,4.26
2023-03-13T06:38:39.729Z,4.29
2023-03-13T06:41:07.306Z,4.34
2023-03-13T06:43:36.600Z,4.29
2023-03-13T06:46:05.906Z,4.38
2023-03-13T06:48:33.772Z,4.31
2023-03-13T06:51:01.497Z,4.31
2023-03-13T06:53:29.140Z,4.41
2023-03-13T06:55:57.087Z,4.46
2023-03-13T06:58:32.205Z,4.45
2023-03-13T07:01:06.476Z,4.53
2023-03-13T07:03:34.308Z,4.54
2023-03-13T07:06:02.234Z,4.63
2023-03-13T07:08:29.984Z,4.75
2023-03-13T07:11:00.731Z,4.80
2023-03-13T07:13:28.646Z,4.84
2023-03-13T07:15:56.404Z,4.77
2023-03-13T07:18:25.443Z,4.65
2023-03-13T07:20:54.287Z,4.68
2023-03-13T07:23:22.027Z,4.63
2023-03-13T07:25:54.699Z,4.63
2023-03-13T07:28:22.457Z,4.64
2023-03-13T07:30:50.649Z,4.58
2023-03-13T07:33:18.527Z,4.59
2023-03-13T07:35:50.645Z,4.58
2023-03-13T07:38:18.364Z,4.56
2023-03-13T07:40:50.432Z,4.56
2023-03-13T07:43:18.140Z,4.63
2023-03-13T07:45:52.645Z,4.58
2023-03-13T07:48:20.520Z,4.70
2023-03-13T07:50:48.412Z,4.63
2023-03-13T07:53:21.165Z,4.66
2023-03-13T07:55:57.094Z,4.69
2023-03-13T07:58:25.406Z,4.71
2023-03-13T08:00:53.025Z,4.76
2023-03-13T08:03:20.804Z,4.86
2023-03-13T08:05:48.674Z,4.87
2023-03-13T08:08:17.612Z,4.89
2023-03-13T08:10:45.321Z,4.94
2023-03-13T08:13:12.876Z,4.95
2023-03-13T08:15:40.780Z,4.97
2023-03-13T08:18:08.353Z,4.98
2023-03-13T08:20:36.144Z,4.96
2023-03-13T08:23:03.758Z,5.21
2023-03-13T08:25:33.339Z,5.38
2023-03-13T08:28:02.459Z,5.67
2023-03-13T08:30:30.267Z,5.89
2023-03-13T08:32:57.967Z,6.23
2023-03-13T08:35:25.728Z,6.10
2023-03-13T08:37:53.330Z,6.20
2023-03-13T08:40:20.968Z,6.21
2023-03-13T08:42:49.945Z,6.41
2023-03-13T08:45:17.609Z,6.53
2023-03-13T08:47:45.231Z,6.43
2023-03-13T08:50:13.389Z,6.49
2023-03-13T08:52:41.080Z,6.54
2023-03-13T08:55:09.636Z,6.68
2023-03-13T08:57:37.264Z,6.61
2023-03-13T09:00:07.871Z,6.59
2023-03-13T09:02:35.538Z,6.55
2023-03-13T09:05:03.191Z,6.65
2023-03-13T09:07:30.894Z,6.60
2023-03-13T09:09:58.575Z,6.92
2023-03-13T09:12:31.059Z,6.88
2023-03-13T09:14:59.199Z,6.92
2023-03-13T09:17:29.322Z,6.92
2023-03-13T09:20:00.698Z,6.86
2023-03-13T09:22:34.951Z,6.81
2023-03-13T09:25:02.677Z,6.83
2023-03-13T09:27:30.257Z,6.82
2023-03-13T09:29:57.868Z,6.95
2023-03-13T09:32:25.961Z,7.01
2023-03-13T09:34:55.697Z,7.29
2023-03-13T09:37:23.350Z,7.26
2023-03-13T09:39:51.025Z,7.38
2023-03-13T09:42:20.178Z,7.34
2023-03-13T09:44:51.623Z,7.37
2023-03-13T09:47:23.630Z,7.31
2023-03-13T09:49:55.538Z,7.36
2023-03-13T09:52:25.434Z,7.48
2023-03-13T09:54:56.642Z,7.55
2023-03-13T09:57:28.257Z,7.61
2023-03-13T09:59:59.145Z,7.56
2023-03-13T10:02:30.963Z,7.61
2023-03-13T10:05:09.430Z,7.73
2023-03-13T10:07:37.461Z,7.51
2023-03-13T10:10:08.550Z,7.50
2023-03-13T10:12:39.735Z,7.44
2023-03-13T10:15:22.618Z,7.48
2023-03-13T10:17:50.535Z,7.71
2023-03-13T10:20:24.445Z,7.94
2023-03-13T10:22:58.482Z,8.15
2023-03-13T10:25:30.347Z,8.21
2023-03-13T10:27:58.514Z,8.23
2023-03-13T10:30:27.675Z,8.36
2023-03-13T10:32:58.245Z,8.38
2023-03-13T10:35:33.463Z,8.43
2023-03-13T10:38:05.158Z,8.47
2023-03-13T10:40:33.004Z,8.48
2023-03-13T10:43:06.488Z,8.76
2023-03-13T10:45:36.602Z,8.94
2023-03-13T10:48:11.445Z,9.19
2023-03-13T10:50:43.960Z,9.28
2023-03-13T10:53:23.595Z,9.05
2023-03-13T10:55:54.360Z,9.03
2023-03-13T10:58:25.067Z,9.02
2023-03-13T11:00:52.694Z,9.10
2023-03-13T11:03:24.571Z,9.19
2023-03-13T11:06:00.914Z,9.38
2023-03-13T11:08:30.161Z,9.65
2023-03-13T11:11:00.218Z,9.61
2023-03-13T11:13:36.347Z,9.64
2023-03-13T11:16:15.538Z,9.56
2023-03-13T11:18:50.781Z,9.57
2023-03-13T11:21:25.506Z,9.66
2023-03-13T11:24:01.772Z,9.63
2023-03-13T11:26:34.676Z,9.75
2023-03-13T11:29:07.649Z,9.84
2023-03-13T11:31:37.576Z,9.79
2023-03-13T11:34:09.655Z,9.83
2023-03-13T11:36:44.175Z,10.08
2023-03-13T11:39:36.833Z,9.82
2023-03-13T11:42:10.850Z,9.71
2023-03-13T11:44:46.969Z,9.77
2023-03-13T11:47:24.825Z,9.89
2023-03-13T11:50:10.086Z,10.00
2023-03-13T11:52:58.788Z,9.90
2023-03-13T11:55:31.777Z,9.89
2023-03-13T11:58:10.826Z,9.80
2023-03-13T12:00:42.721Z,9.77
2023-03-13T12:03:16.026Z,9.83
2023-03-13T12:05:47.231Z,9.84
2023-03-13T12:08:23.001Z,9.91
2023-03-13T12:11:01.292Z,9.87
2023-03-13T12:13:31.380Z,10.04
2023-03-13T12:16:02.210Z,10.32
2023-03-13T12:18:33.082Z,10.40
2023-03-13T12:21:05.941Z,10.59
2023-03-13T12:23:43.656Z,10.87
2023-03-13T12:26:14.569Z,11.14
2023-03-13T12:28:44.784Z,11.87
2023-03-13T12:31:22.873Z,12.03
2023-03-13T12:33:55.329Z,11.64
2023-03-13T12:36:29.292Z,12.05
2023-03-13T12:39:05.668Z,12.16
2023-03-13T12:41:38.578Z,12.58
2023-03-13T12:44:09.720Z,12.87
2023-03-13T12:46:44.188Z,12.79
2023-03-13T12:49:44.577Z,12.59
2023-03-13T12:52:57.018Z,12.69
2023-03-13T12:55:59.135Z,13.10
2023-03-13T12:58:41.944Z,13.63
2023-03-13T13:01:16.189Z,13.91
2023-03-13T13:03:51.693Z,13.53
2023-03-13T13:06:20.212Z,13.60
2023-03-13T13:08:50.054Z,13.36
2023-03-13T13:11:44.944Z,13.14
2023-03-13T13:14:59.768Z,13.07
2023-03-13T13:17:32.081Z,12.98
2023-03-13T13:20:00.183Z,12.85
2023-03-13T13:22:47.856Z,12.86
2023-03-13T13:25:31.642Z,13.02
2023-03-13T13:28:24.027Z,13.25
2023-03-13T13:30:55.351Z,13.05
2023-03-13T13:33:38.162Z,13.20
2023-03-13T13:36:42.438Z,12.98
2023-03-13T13:39:31.200Z,13.03
2023-03-13T13:41:58.954Z,13.40
2023-03-13T13:44:31.131Z,13.56
2023-03-13T13:47:01.887Z,13.35
2023-03-13T13:49:54.503Z,13.52
2023-03-13T13:52:40.734Z,13.85
2023-03-13T13:55:34.705Z,13.49
2023-03-13T13:58:05.238Z,13.09
2023-03-13T14:00:41.780Z,13.47
2023-03-13T14:03:22.400Z,13.55
2023-03-13T14:05:52.625Z,13.86
2023-03-13T14:08:23.176Z,13.93
2023-03-13T14:10:55.171Z,13.73
2023-03-13T14:13:24.902Z,13.72
2023-03-13T14:15:54.467Z,13.73
2023-03-13T14:18:23.798Z,13.94
2023-03-13T14:20:59.369Z,14.00
2023-03-13T14:23:35.523Z,13.86
2023-03-13T14:26:12.125Z,13.63
2023-03-13T14:28:41.076Z,13.51
2023-03-13T14:31:12.178Z,13.44
2023-03-13T14:33:40.047Z,13.46
2023-03-13T14:36:08.328Z,13.71
2023-03-13T14:38:36.050Z,13.74
2023-03-13T14:41:03.819Z,13.72
2023-03-13T14:43:34.778Z,13.65
2023-03-13T14:46:16.070Z,13.60
2023-03-13T14:48:44.278Z,13.74
2023-03-13T14:51:19.711Z,13.85
2023-03-13T14:53:57.919Z,13.77
2023-03-13T14:56:33.504Z,13.84
2023-03-13T14:59:09.004Z,13.89
2023-03-13T15:01:38.136Z,13.71
2023-03-13T15:04:05.981Z,13.64
2023-03-13T15:06:33.805Z,13.71
2023-03-13T15:09:20.301Z,13.67
2023-03-13T15:11:56.700Z,13.71
2023-03-13T15:14:37.202Z,13.80
2023-03-13T15:17:12.719Z,13.83
2023-03-13T15:19:40.389Z,13.65
2023-03-13T15:22:13.214Z,13.49
2023-03-13T15:24:40.809Z,13.38
2023-03-13T15:27:16.342Z,13.24
2023-03-13T15:29:44.193Z,13.14
2023-03-13T15:32:18.065Z,13.19
2023-03-13T15:34:46.166Z,13.07
2023-03-13T15:37:14.374Z,13.08
2023-03-13T15:39:42.292Z,13.01
2023-03-13T15:42:10.382Z,13.02
2023-03-13T15:44:38.030Z,12.97
2023-03-13T15:47:05.766Z,12.97
2023-03-13T15:49:34.862Z,12.93
2023-03-13T15:52:02.488Z,12.90
2023-03-13T15:54:30.104Z,12.78
2023-03-13T15:56:57.856Z,12.69
2023-03-13T15:59:25.530Z,12.69
2023-03-13T16:01:53.329Z,12.71
2023-03-13T16:04:21.130Z,12.67
2023-03-13T16:06:50.186Z,12.68
2023-03-13T16:09:17.820Z,12.65
2023-03-13T16:11:45.808Z,12.74
2023-03-13T16:14:13.437Z,12.58
2023-03-13T16:16:41.417Z,12.53
2023-03-13T16:19:10.624Z,12.37
2023-03-13T16:21:40.358Z,12.23
2023-03-13T16:24:09.518Z,12.13
2023-03-13T16:26:37.128Z,11.96
2023-03-13T16:29:04.772Z,11.87
2023-03-13T16:31:34.319Z,11.73
2023-03-13T16:34:02.345Z,11.61
2023-03-13T16:36:31.610Z,11.48
2023-03-13T16:38:59.762Z,11.41
2023-03-13T16:41:29.726Z,11.42
2023-03-13T16:43:57.630Z,11.18
2023-03-13T16:46:27.105Z,11.19
2023-03-13T16:48:57.082Z,11.24
2023-03-13T16:51:26.391Z,11.08
2023-03-13T16:53:55.039Z,10.94
2023-03-13T16:56:26.095Z,10.85
2023-03-13T16:58:55.677Z,10.64
2023-03-13T17:01:24.850Z,10.54
2023-03-13T17:03:52.830Z,10.52
2023-03-13T17:06:22.577Z,10.50
2023-03-13T17:08:50.599Z,10.48
2023-03-13T17:11:19.628Z,10.46
2023-03-13T17:13:48.707Z,10.36
2023-03-13T17:16:20.553Z,10.26
2023-03-13T17:18:50.020Z,10.13
2023-03-13T17:21:19.402Z,10.06
2023-03-13T17:23:47.349Z,10.08
2023-03-13T17:26:18.794Z,10.07
2023-03-13T17:28:48.475Z,9.98
2023-03-13T17:31:18.571Z,9.93
2023-03-13T17:33:46.664Z,9.87
2023-03-13T17:36:20.192Z,9.84
2023-03-13T17:38:48.969Z,10.02
2023-03-13T17:41:17.972Z,9.87
2023-03-13T17:43:45.635Z,9.89
2023-03-13T17:46:19.783Z,9.96
2023-03-13T17:48:48.752Z,9.79
2023-03-13T17:51:18.711Z,9.75
2023-03-13T17:53:46.622Z,9.65
2023-03-13T17:56:15.741Z,9.61
2023-03-13T17:58:43.461Z,9.73
2023-03-13T18:01:13.281Z,9.73
2023-03-13T18:03:42.939Z,9.80
2023-03-13T18:06:19.008Z,9.79
2023-03-13T18:08:46.766Z,9.74
2023-03-13T18:11:15.403Z,9.64
2023-03-13T18:13:43.130Z,9.83
2023-03-13T18:16:18.383Z,9.70
2023-03-13T18:18:47.453Z,9.92
2023-03-13T18:21:15.108Z,10.04
2023-03-13T18:23:42.711Z,9.81
2023-03-13T18:26:30.208Z,9.66
2023-03-13T18:29:00.985Z,9.62
2023-03-13T18:31:30.018Z,9.73
2023-03-13T18:34:00.165Z,9.82
2023-03-13T18:36:28.944Z,9.89
2023-03-13T18:38:57.154Z,9.82
2023-03-13T18:41:25.258Z,9.94
2023-03-13T18:43:52.920Z,9.93
2023-03-13T18:46:22.020Z,10.01
2023-03-13T18:48:50.797Z,9.95
2023-03-13T18:51:21.272Z,9.90
2023-03-13T18:53:48.972Z,9.84
2023-03-13T18:56:19.610Z,9.80
2023-03-13T18:58:50.296Z,9.75
2023-03-13T19:01:20.708Z,9.68
2023-03-13T19:03:49.324Z,9.96
2023-03-13T19:06:29.431Z,10.16
2023-03-13T19:08:58.696Z,10.02
2023-03-13T19:11:28.664Z,9.99
2023-03-13T19:13:57.340Z,9.89
2023-03-13T19:16:26.899Z,9.92
2023-03-13T19:18:55.253Z,10.04
2023-03-13T19:21:24.248Z,9.93
2023-03-13T19:23:54.040Z,10.08
2023-03-13T19:26:27.463Z,10.04
2023-03-13T19:28:55.091Z,9.97
2023-03-13T19:31:23.544Z,9.95
2023-03-13T19:33:53.560Z,9.96
2023-03-13T19:36:22.685Z,10.07
2023-03-13T19:38:50.832Z,9.95
2023-03-13T19:41:19.791Z,10.00
2023-03-13T19:43:48.465Z,10.11
2023-03-13T19:46:24.959Z,10.06
2023-03-13T19:48:53.924Z,10.08
2023-03-13T19:51:21.757Z,9.96
2023-03-13T19:53:49.516Z,9.84
2023-03-13T19:56:20.685Z,9.72
2023-03-13T19:58:49.289Z,9.59
2023-03-13T20:01:18.117Z,9.64
2023-03-13T20:03:46.743Z,9.79
2023-03-13T20:06:17.368Z,9.82
2023-03-13T20:08:45.162Z,9.77
2023-03-13T20:11:12.888Z,9.78
2023-03-13T20:13:42.365Z,9.63
2023-03-13T20:16:11.665Z,9.44
2023-03-13T20:18:39.689Z,9.26
2023-03-13T20:21:08.511Z,9.21
2023-03-13T20:23:36.143Z,9.26
2023-03-13T20:26:06.055Z,9.18
2023-03-13T20:28:33.660Z,9.22
2023-03-13T20:31:02.642Z,9.34
2023-03-13T20:33:30.840Z,9.43
2023-03-13T20:36:01.986Z,9.68
2023-03-13T20:38:30.115Z,9.83
2023-03-13T20:40:58.098Z,10.03
2023-03-13T20:43:26.357Z,10.09
2023-03-13T20:45:54.102Z,10.10
2023-03-13T20:48:25.995Z,10.03
2023-03-13T20:50:54.590Z,10.03
2023-03-13T20:53:22.810Z,9.86
2023-03-13T20:55:50.780Z,9.87
2023-03-13T20:58:20.198Z,9.92
2023-03-13T21:00:48.543Z,9.85
2023-03-13T21:03:17.394Z,9.74
2023-03-13T21:05:46.608Z,9.55
2023-03-13T21:08:14.702Z,9.50
2023-03-13T21:10:42.830Z,9.43
2023-03-13T21:13:11.167Z,9.36
2023-03-13T21:15:40.512Z,9.51
2023-03-13T21:18:08.497Z,9.42
2023-03-13T21:20:36.111Z,9.29
2023-03-13T21:23:05.175Z,9.22
2023-03-13T21:25:32.760Z,9.29
2023-03-13T21:28:00.728Z,9.35
2023-03-13T21:30:28.413Z,9.36
2023-03-13T21:32:56.071Z,9.41
2023-03-13T21:35:23.740Z,9.39
2023-03-13T21:37:51.411Z,9.32
2023-03-13T21:40:20.516Z,9.31
2023-03-13T21:42:48.103Z,9.30
2023-03-13T21:45:15.729Z,9.31
2023-03-13T21:47:43.330Z,9.21
2023-03-13T21:50:14.213Z,9.10
2023-03-13T21:52:42.422Z,8.97
2023-03-13T21:55:12.220Z,8.90
2023-03-13T21:57:41.278Z,8.80
2023-03-13T22:00:10.521Z,8.68
2023-03-13T22:02:38.606Z,8.70
2023-03-13T22:05:07.782Z,8.60
2023-03-13T22:07:35.457Z,8.58
2023-03-13T22:10:03.088Z,8.57
2023-03-13T22:12:30.683Z,8.63
2023-03-13T22:14:59.693Z,8.69
2023-03-13T22:17:27.290Z,8.72
2023-03-13T22:19:54.934Z,8.74
2023-03-13T22:22:23.261Z,8.69
2023-03-13T22:24:51.127Z,8.72
2023-03-13T22:27:19.456Z,8.50
2023-03-13T22:29:47.673Z,8.24
2023-03-13T22:32:16.829Z,8.17
2023-03-13T22:34:47.114Z,8.05
2023-03-13T22:37:14.803Z,7.99
2023-03-13T22:39:42.506Z,8.02
2023-03-13T22:42:10.120Z,8.05
2023-03-13T22:44:37.706Z,8.05
2023-03-13T22:47:05.392Z,7.99
2023-03-13T22:49:34.322Z,8.11
2023-03-13T22:52:02.699Z,8.11
2023-03-13T22:54:30.485Z,8.21
2023-03-13T22:56:58.111Z,8.33
2023-03-13T22:59:25.800Z,8.36
2023-03-13T23:01:53.363Z,8.39
2023-03-13T23:04:21.357Z,8.47
2023-03-13T23:06:50.387Z,8.56
2023-03-13T23:09:18.009Z,8.55
2023-03-13T23:11:46.593Z,8.44
2023-03-13T23:14:14.210Z,8.40
2023-03-13T23:16:42.184Z,8.41
2023-03-13T23:19:09.772Z,8.25
2023-03-13T23:21:37.378Z,8.16
2023-03-13T23:24:06.991Z,8.11
2023-03-13T23:26:35.227Z,8.07
2023-03-13T23:29:02.994Z,8.02
2023-03-13T23:31:30.741Z,7.94
2023-03-13T23:33:59.052Z,7.91
2023-03-13T23:36:26.985Z,7.88
2023-03-13T23:38:56.119Z,7.82
2023-03-13T23:41:25.083Z,7.80
2023-03-13T23:43:52.690Z,7.80
2023-03-13T23:46:21.692Z,7.78
2023-03-13T23:48:49.551Z,7.69
2023-03-13T23:51:17.185Z,7.70
2023-03-13T23:53:45.328Z,7.70
2023-03-13T23:56:12.974Z,7.68
2023-03-13T23:58:42.109Z,7.55
